sensor_id;sensor_type;location;lat;lon;timestamp;P1;durP1;ratioP1;P2;durP2;ratioP2
61009;SDS011;46897;55.340;86.082;2022-12-18T13:58:43;121.43;;;42.60;;
61009;SDS011;46897;55.340;86.082;2022-12-18T14:01:21;90.10;;;35.55;;
61009;SDS011;46897;55.340;86.082;2022-12-18T14:06:39;131.77;;;43.80;;
61009;SDS011;46897;55.340;86.082;2022-12-18T14:09:13;120.30;;;38.30;;
61009;SDS011;46897;55.340;86.082;2022-12-18T14:11:47;120.10;;;36.40;;
61009;SDS011;46897;55.340;86.082;2022-12-18T14:14:19;146.25;;;43.10;;
61009;SDS011;46897;55.340;86.082;2022-12-18T14:16:53;126.30;;;38.25;;
61009;SDS011;46897;55.340;86.082;2022-12-18T14:19:22;125.80;;;37.45;;
61009;SDS011;46897;55.340;86.082;2022-12-18T14:21:52;94.68;;;31.60;;
61009;SDS011;46897;55.340;86.082;2022-12-18T14:24:21;105.97;;;34.92;;
61009;SDS011;46897;55.340;86.082;2022-12-18T14:26:50;113.45;;;35.30;;
61009;SDS011;46897;55.340;86.082;2022-12-18T14:29:23;114.68;;;35.20;;
61009;SDS011;46897;55.340;86.082;2022-12-18T14:32:11;113.00;;;34.35;;
61009;SDS011;46897;55.340;86.082;2022-12-18T14:34:45;115.53;;;34.50;;
61009;SDS011;46897;55.340;86.082;2022-12-18T14:37:15;109.35;;;32.90;;
61009;SDS011;46897;55.340;86.082;2022-12-18T14:39:55;96.15;;;31.40;;
61009;SDS011;46897;55.340;86.082;2022-12-18T14:42:26;93.20;;;29.45;;
61009;SDS011;46897;55.340;86.082;2022-12-18T14:48:09;102.70;;;29.55;;
61009;SDS011;46897;55.340;86.082;2022-12-18T14:50:56;64.15;;;22.00;;
61009;SDS011;46897;55.340;86.082;2022-12-18T14:53:29;81.97;;;24.80;;
61009;SDS011;46897;55.340;86.082;2022-12-18T14:56:02;51.45;;;18.30;;
61009;SDS011;46897;55.340;86.082;2022-12-18T14:58:44;54.63;;;14.02;;
61009;SDS011;46897;55.340;86.082;2022-12-18T15:01:19;51.58;;;16.10;;
61009;SDS011;46897;55.340;86.082;2022-12-18T15:03:54;61.83;;;20.70;;
61009;SDS011;46897;55.340;86.082;2022-12-18T15:06:26;44.00;;;14.52;;
61009;SDS011;46897;55.340;86.082;2022-12-18T15:09:00;43.58;;;15.02;;
61009;SDS011;46897;55.340;86.082;2022-12-18T15:11:33;45.70;;;15.90;;
61009;SDS011;46897;55.340;86.082;2022-12-18T15:17:16;36.72;;;12.88;;
61009;SDS011;46897;55.340;86.082;2022-12-18T15:19:48;36.95;;;13.00;;
61009;SDS011;46897;55.340;86.082;2022-12-18T15:22:21;40.92;;;13.32;;
61009;SDS011;46897;55.340;86.082;2022-12-18T15:24:53;31.38;;;12.00;;
61009;SDS011;46897;55.340;86.082;2022-12-18T15:27:26;49.08;;;15.63;;
61009;SDS011;46897;55.340;86.082;2022-12-18T15:30:11;53.08;;;16.98;;
61009;SDS011;46897;55.340;86.082;2022-12-18T15:32:48;38.70;;;14.85;;
61009;SDS011;46897;55.340;86.082;2022-12-18T15:35:19;8.32;;;4.70;;
61009;SDS011;46897;55.340;86.082;2022-12-18T15:37:49;41.47;;;13.95;;
61009;SDS011;46897;55.340;86.082;2022-12-18T15:40:21;57.83;;;15.70;;
61009;SDS011;46897;55.340;86.082;2022-12-18T15:42:52;39.63;;;13.95;;
61009;SDS011;46897;55.340;86.082;2022-12-18T15:45:40;50.08;;;15.70;;
61009;SDS011;46897;55.340;86.082;2022-12-18T15:48:15;31.88;;;12.25;;
61009;SDS011;46897;55.340;86.082;2022-12-18T15:50:49;32.67;;;11.38;;
61009;SDS011;46897;55.340;86.082;2022-12-18T15:53:19;43.80;;;13.77;;
61009;SDS011;46897;55.340;86.082;2022-12-18T15:55:49;45.45;;;12.60;;
61009;SDS011;46897;55.340;86.082;2022-12-18T15:58:36;147.88;;;44.22;;
61009;SDS011;46897;55.340;86.082;2022-12-18T16:01:05;46.83;;;12.52;;
61009;SDS011;46897;55.340;86.082;2022-12-18T16:03:38;32.35;;;12.48;;
61009;SDS011;46897;55.340;86.082;2022-12-18T16:06:08;32.25;;;11.68;;
61009;SDS011;46897;55.340;86.082;2022-12-18T16:08:38;27.58;;;9.52;;
61009;SDS011;46897;55.340;86.082;2022-12-18T16:11:09;33.08;;;10.98;;
61009;SDS011;46897;55.340;86.082;2022-12-18T16:14:15;40.20;;;13.13;;
61009;SDS011;46897;55.340;86.082;2022-12-18T16:16:47;32.97;;;12.73;;
61009;SDS011;46897;55.340;86.082;2022-12-18T16:19:19;44.05;;;13.30;;
61009;SDS011;46897;55.340;86.082;2022-12-18T16:21:50;56.45;;;12.98;;
61009;SDS011;46897;55.340;86.082;2022-12-18T16:24:21;37.80;;;12.27;;
61009;SDS011;46897;55.340;86.082;2022-12-18T16:26:51;41.65;;;13.48;;
61009;SDS011;46897;55.340;86.082;2022-12-18T16:29:22;52.97;;;16.60;;
61009;SDS011;46897;55.340;86.082;2022-12-18T16:31:54;36.60;;;12.90;;
61009;SDS011;46897;55.340;86.082;2022-12-18T16:34:26;42.83;;;14.60;;
61009;SDS011;46897;55.340;86.082;2022-12-18T16:37:01;64.38;;;18.88;;
61009;SDS011;46897;55.340;86.082;2022-12-18T16:39:32;53.95;;;17.58;;
61009;SDS011;46897;55.340;86.082;2022-12-18T16:42:02;57.88;;;18.83;;
61009;SDS011;46897;55.340;86.082;2022-12-18T16:44:32;59.47;;;20.52;;
61009;SDS011;46897;55.340;86.082;2022-12-18T16:47:03;51.42;;;17.42;;
61009;SDS011;46897;55.340;86.082;2022-12-18T16:49:37;43.13;;;16.77;;
61009;SDS011;46897;55.340;86.082;2022-12-18T16:52:07;56.50;;;17.75;;
61009;SDS011;46897;55.340;86.082;2022-12-18T16:54:37;44.35;;;15.15;;
61009;SDS011;46897;55.340;86.082;2022-12-18T16:57:06;44.63;;;15.55;;
61009;SDS011;46897;55.340;86.082;2022-12-18T16:59:37;53.05;;;14.98;;
61009;SDS011;46897;55.340;86.082;2022-12-18T17:02:08;40.95;;;13.07;;
61009;SDS011;46897;55.340;86.082;2022-12-18T17:04:46;36.40;;;12.57;;
61009;SDS011;46897;55.340;86.082;2022-12-18T17:07:16;26.77;;;10.90;;
61009;SDS011;46897;55.340;86.082;2022-12-18T17:09:45;21.73;;;8.60;;
61009;SDS011;46897;55.340;86.082;2022-12-18T17:12:16;50.20;;;13.35;;
61009;SDS011;46897;55.340;86.082;2022-12-18T17:14:45;30.58;;;10.98;;
61009;SDS011;46897;55.340;86.082;2022-12-18T17:17:14;38.83;;;10.25;;
61009;SDS011;46897;55.340;86.082;2022-12-18T17:19:49;40.63;;;13.55;;
61009;SDS011;46897;55.340;86.082;2022-12-18T17:22:19;49.75;;;14.52;;
61009;SDS011;46897;55.340;86.082;2022-12-18T17:24:49;44.60;;;14.57;;
61009;SDS011;46897;55.340;86.082;2022-12-18T17:27:18;42.72;;;14.65;;
61009;SDS011;46897;55.340;86.082;2022-12-18T17:29:48;40.92;;;11.82;;
61009;SDS011;46897;55.340;86.082;2022-12-18T17:32:17;48.78;;;14.95;;
61009;SDS011;46897;55.340;86.082;2022-12-18T17:34:48;48.13;;;16.10;;
61009;SDS011;46897;55.340;86.082;2022-12-18T17:37:17;40.40;;;13.95;;
61009;SDS011;46897;55.340;86.082;2022-12-18T17:39:47;42.85;;;14.68;;
61009;SDS011;46897;55.340;86.082;2022-12-18T17:42:16;40.70;;;13.35;;
61009;SDS011;46897;55.340;86.082;2022-12-18T17:44:45;34.00;;;10.40;;
61009;SDS011;46897;55.340;86.082;2022-12-18T17:47:14;38.17;;;11.90;;
61009;SDS011;46897;55.340;86.082;2022-12-18T17:49:44;29.38;;;10.30;;
61009;SDS011;46897;55.340;86.082;2022-12-18T17:52:15;33.83;;;11.43;;
61009;SDS011;46897;55.340;86.082;2022-12-18T17:54:45;35.92;;;13.13;;
61009;SDS011;46897;55.340;86.082;2022-12-18T17:57:14;29.85;;;11.38;;
61009;SDS011;46897;55.340;86.082;2022-12-18T17:59:43;33.17;;;11.90;;
61009;SDS011;46897;55.340;86.082;2022-12-18T18:02:13;33.38;;;10.77;;
61009;SDS011;46897;55.340;86.082;2022-12-18T18:04:43;33.60;;;12.65;;
61009;SDS011;46897;55.340;86.082;2022-12-18T18:07:16;48.97;;;14.43;;
61009;SDS011;46897;55.340;86.082;2022-12-18T18:09:47;42.42;;;13.88;;
61009;SDS011;46897;55.340;86.082;2022-12-18T18:12:21;43.17;;;14.57;;
61009;SDS011;46897;55.340;86.082;2022-12-18T18:15:12;31.45;;;11.20;;
61009;SDS011;46897;55.340;86.082;2022-12-18T18:17:48;39.97;;;12.77;;
61009;SDS011;46897;55.340;86.082;2022-12-18T18:20:24;48.00;;;13.50;;
61009;SDS011;46897;55.340;86.082;2022-12-18T18:23:01;30.83;;;11.57;;
61009;SDS011;46897;55.340;86.082;2022-12-18T18:25:34;48.25;;;15.20;;
61009;SDS011;46897;55.340;86.082;2022-12-18T18:28:03;32.15;;;10.82;;
61009;SDS011;46897;55.340;86.082;2022-12-18T18:30:34;31.23;;;11.63;;
61009;SDS011;46897;55.340;86.082;2022-12-18T18:33:04;32.67;;;11.95;;
61009;SDS011;46897;55.340;86.082;2022-12-18T18:35:40;40.50;;;12.93;;
61009;SDS011;46897;55.340;86.082;2022-12-18T18:38:21;48.08;;;12.48;;
61009;SDS011;46897;55.340;86.082;2022-12-18T18:40:56;38.78;;;13.05;;
61009;SDS011;46897;55.340;86.082;2022-12-18T18:43:26;43.65;;;15.25;;
61009;SDS011;46897;55.340;86.082;2022-12-18T18:45:56;36.22;;;11.82;;
61009;SDS011;46897;55.340;86.082;2022-12-18T18:48:25;47.80;;;14.02;;
61009;SDS011;46897;55.340;86.082;2022-12-18T18:51:01;31.77;;;12.80;;
61009;SDS011;46897;55.340;86.082;2022-12-18T18:53:36;41.10;;;11.57;;
61009;SDS011;46897;55.340;86.082;2022-12-18T18:56:06;30.83;;;9.48;;
61009;SDS011;46897;55.340;86.082;2022-12-18T18:58:57;42.85;;;12.98;;
61009;SDS011;46897;55.340;86.082;2022-12-18T19:01:27;30.60;;;10.65;;
61009;SDS011;46897;55.340;86.082;2022-12-18T19:03:56;26.35;;;9.57;;
61009;SDS011;46897;55.340;86.082;2022-12-18T19:06:26;37.08;;;11.38;;
61009;SDS011;46897;55.340;86.082;2022-12-18T19:08:59;32.22;;;10.05;;
61009;SDS011;46897;55.340;86.082;2022-12-18T19:11:30;38.75;;;11.30;;
61009;SDS011;46897;55.340;86.082;2022-12-18T19:14:16;34.05;;;11.32;;
61009;SDS011;46897;55.340;86.082;2022-12-18T19:16:47;30.50;;;10.73;;
61009;SDS011;46897;55.340;86.082;2022-12-18T19:19:16;28.20;;;9.45;;
61009;SDS011;46897;55.340;86.082;2022-12-18T19:21:47;32.05;;;10.80;;
61009;SDS011;46897;55.340;86.082;2022-12-18T19:24:18;36.92;;;10.77;;
61009;SDS011;46897;55.340;86.082;2022-12-18T19:26:48;21.83;;;8.80;;
61009;SDS011;46897;55.340;86.082;2022-12-18T19:29:22;29.30;;;10.15;;
61009;SDS011;46897;55.340;86.082;2022-12-18T19:31:51;26.85;;;9.50;;
61009;SDS011;46897;55.340;86.082;2022-12-18T19:34:20;31.23;;;10.98;;
61009;SDS011;46897;55.340;86.082;2022-12-18T19:36:49;32.60;;;11.52;;
61009;SDS011;46897;55.340;86.082;2022-12-18T19:41:55;26.27;;;10.43;;
61009;SDS011;46897;55.340;86.082;2022-12-18T19:44:25;25.15;;;10.50;;
61009;SDS011;46897;55.340;86.082;2022-12-18T19:46:54;24.45;;;9.57;;
61009;SDS011;46897;55.340;86.082;2022-12-18T19:49:23;38.92;;;13.35;;
61009;SDS011;46897;55.340;86.082;2022-12-18T19:51:52;28.75;;;9.85;;
61009;SDS011;46897;55.340;86.082;2022-12-18T19:54:22;29.15;;;10.55;;
61009;SDS011;46897;55.340;86.082;2022-12-18T19:56:53;32.63;;;12.25;;
61009;SDS011;46897;55.340;86.082;2022-12-18T19:59:22;29.50;;;11.43;;
61009;SDS011;46897;55.340;86.082;2022-12-18T20:01:51;26.90;;;9.45;;
61009;SDS011;46897;55.340;86.082;2022-12-18T20:04:21;33.45;;;12.00;;
61009;SDS011;46897;55.340;86.082;2022-12-18T20:06:51;35.75;;;12.98;;
61009;SDS011;46897;55.340;86.082;2022-12-18T20:09:21;33.25;;;12.15;;
61009;SDS011;46897;55.340;86.082;2022-12-18T20:11:53;27.30;;;9.32;;
61009;SDS011;46897;55.340;86.082;2022-12-18T20:14:22;31.95;;;10.60;;
61009;SDS011;46897;55.340;86.082;2022-12-18T20:16:51;30.70;;;10.50;;
61009;SDS011;46897;55.340;86.082;2022-12-18T20:19:22;26.60;;;9.15;;
61009;SDS011;46897;55.340;86.082;2022-12-18T20:21:51;26.08;;;9.95;;
61009;SDS011;46897;55.340;86.082;2022-12-18T20:24:21;32.35;;;10.55;;
61009;SDS011;46897;55.340;86.082;2022-12-18T20:26:50;32.35;;;12.75;;
61009;SDS011;46897;55.340;86.082;2022-12-18T20:29:21;31.83;;;10.93;;
61009;SDS011;46897;55.340;86.082;2022-12-18T20:31:50;26.38;;;9.75;;
61009;SDS011;46897;55.340;86.082;2022-12-18T20:34:20;32.40;;;10.32;;
61009;SDS011;46897;55.340;86.082;2022-12-18T20:36:50;23.70;;;9.88;;
61009;SDS011;46897;55.340;86.082;2022-12-18T20:39:20;31.13;;;9.77;;
61009;SDS011;46897;55.340;86.082;2022-12-18T20:41:50;24.83;;;9.73;;
61009;SDS011;46897;55.340;86.082;2022-12-18T20:44:21;32.30;;;9.82;;
61009;SDS011;46897;55.340;86.082;2022-12-18T20:46:51;28.48;;;10.60;;
61009;SDS011;46897;55.340;86.082;2022-12-18T20:49:21;31.45;;;10.43;;
61009;SDS011;46897;55.340;86.082;2022-12-18T20:51:52;30.35;;;9.85;;
61009;SDS011;46897;55.340;86.082;2022-12-18T20:54:22;28.67;;;9.65;;
61009;SDS011;46897;55.340;86.082;2022-12-18T20:56:53;32.63;;;11.40;;
61009;SDS011;46897;55.340;86.082;2022-12-18T20:59:24;33.58;;;13.15;;
61009;SDS011;46897;55.340;86.082;2022-12-18T21:01:53;36.08;;;10.35;;
61009;SDS011;46897;55.340;86.082;2022-12-18T21:04:23;27.67;;;9.32;;
61009;SDS011;46897;55.340;86.082;2022-12-18T21:06:53;22.42;;;9.00;;
61009;SDS011;46897;55.340;86.082;2022-12-18T21:09:28;27.73;;;9.52;;
61009;SDS011;46897;55.340;86.082;2022-12-18T21:14:52;23.98;;;8.23;;
61009;SDS011;46897;55.340;86.082;2022-12-18T21:17:21;16.15;;;5.63;;
61009;SDS011;46897;55.340;86.082;2022-12-18T21:19:52;24.90;;;7.22;;
61009;SDS011;46897;55.340;86.082;2022-12-18T21:22:22;29.02;;;7.85;;
61009;SDS011;46897;55.340;86.082;2022-12-18T21:24:52;21.90;;;7.82;;
61009;SDS011;46897;55.340;86.082;2022-12-18T21:27:22;31.00;;;9.40;;
61009;SDS011;46897;55.340;86.082;2022-12-18T21:29:53;26.60;;;8.77;;
61009;SDS011;46897;55.340;86.082;2022-12-18T21:32:22;27.73;;;7.25;;
61009;SDS011;46897;55.340;86.082;2022-12-18T21:34:55;22.27;;;8.05;;
61009;SDS011;46897;55.340;86.082;2022-12-18T21:37:24;25.15;;;8.50;;
61009;SDS011;46897;55.340;86.082;2022-12-18T21:39:54;23.05;;;7.85;;
61009;SDS011;46897;55.340;86.082;2022-12-18T21:42:23;26.33;;;9.25;;
61009;SDS011;46897;55.340;86.082;2022-12-18T21:45:11;24.27;;;8.73;;
61009;SDS011;46897;55.340;86.082;2022-12-18T21:47:40;24.40;;;8.45;;
61009;SDS011;46897;55.340;86.082;2022-12-18T21:50:10;26.48;;;9.07;;
61009;SDS011;46897;55.340;86.082;2022-12-18T21:52:39;24.40;;;8.90;;
61009;SDS011;46897;55.340;86.082;2022-12-18T21:55:09;19.95;;;7.53;;
61009;SDS011;46897;55.340;86.082;2022-12-18T21:57:38;29.90;;;9.05;;
61009;SDS011;46897;55.340;86.082;2022-12-18T22:00:09;24.65;;;8.35;;
61009;SDS011;46897;55.340;86.082;2022-12-18T22:02:46;29.55;;;9.30;;
61009;SDS011;46897;55.340;86.082;2022-12-18T22:05:35;31.27;;;8.90;;
61009;SDS011;46897;55.340;86.082;2022-12-18T22:08:05;19.10;;;8.25;;
61009;SDS011;46897;55.340;86.082;2022-12-18T22:10:34;22.08;;;9.48;;
61009;SDS011;46897;55.340;86.082;2022-12-18T22:13:04;24.95;;;9.00;;
61009;SDS011;46897;55.340;86.082;2022-12-18T22:15:35;24.38;;;9.75;;
61009;SDS011;46897;55.340;86.082;2022-12-18T22:18:04;30.58;;;9.13;;
61009;SDS011;46897;55.340;86.082;2022-12-18T22:20:33;21.05;;;7.47;;
61009;SDS011;46897;55.340;86.082;2022-12-18T22:23:03;26.67;;;8.70;;
61009;SDS011;46897;55.340;86.082;2022-12-18T22:25:32;40.05;;;10.43;;
61009;SDS011;46897;55.340;86.082;2022-12-18T22:28:05;24.75;;;7.93;;
61009;SDS011;46897;55.340;86.082;2022-12-18T22:30:53;35.00;;;10.50;;
61009;SDS011;46897;55.340;86.082;2022-12-18T22:33:25;22.52;;;7.55;;
61009;SDS011;46897;55.340;86.082;2022-12-18T22:35:54;28.55;;;8.98;;
61009;SDS011;46897;55.340;86.082;2022-12-18T22:38:24;29.23;;;9.38;;
61009;SDS011;46897;55.340;86.082;2022-12-18T22:40:53;24.35;;;8.43;;
61009;SDS011;46897;55.340;86.082;2022-12-18T22:43:23;22.55;;;8.77;;
61009;SDS011;46897;55.340;86.082;2022-12-18T22:45:53;27.60;;;8.93;;
61009;SDS011;46897;55.340;86.082;2022-12-18T22:48:23;24.38;;;9.48;;
61009;SDS011;46897;55.340;86.082;2022-12-18T22:50:52;30.00;;;8.85;;
61009;SDS011;46897;55.340;86.082;2022-12-18T22:53:25;27.95;;;8.90;;
61009;SDS011;46897;55.340;86.082;2022-12-18T22:55:58;26.45;;;10.95;;
61009;SDS011;46897;55.340;86.082;2022-12-18T22:58:28;25.20;;;9.23;;
61009;SDS011;46897;55.340;86.082;2022-12-18T23:00:59;23.67;;;8.30;;
61009;SDS011;46897;55.340;86.082;2022-12-18T23:03:28;35.22;;;9.98;;
61009;SDS011;46897;55.340;86.082;2022-12-18T23:06:03;34.47;;;10.30;;
61009;SDS011;46897;55.340;86.082;2022-12-18T23:08:33;26.90;;;9.75;;
61009;SDS011;46897;55.340;86.082;2022-12-18T23:11:03;33.33;;;11.43;;
61009;SDS011;46897;55.340;86.082;2022-12-18T23:13:33;22.73;;;8.45;;
61009;SDS011;46897;55.340;86.082;2022-12-18T23:16:05;23.20;;;8.60;;
61009;SDS011;46897;55.340;86.082;2022-12-18T23:18:36;28.45;;;10.77;;
61009;SDS011;46897;55.340;86.082;2022-12-18T23:21:06;22.33;;;8.32;;
61009;SDS011;46897;55.340;86.082;2022-12-18T23:23:38;29.42;;;10.00;;
61009;SDS011;46897;55.340;86.082;2022-12-18T23:26:08;33.70;;;10.07;;
61009;SDS011;46897;55.340;86.082;2022-12-18T23:28:39;27.73;;;8.77;;
61009;SDS011;46897;55.340;86.082;2022-12-18T23:31:11;24.48;;;9.18;;
61009;SDS011;46897;55.340;86.082;2022-12-18T23:33:43;22.20;;;7.75;;
61009;SDS011;46897;55.340;86.082;2022-12-18T23:36:13;26.08;;;9.05;;
61009;SDS011;46897;55.340;86.082;2022-12-18T23:38:46;38.80;;;10.70;;
61009;SDS011;46897;55.340;86.082;2022-12-18T23:41:17;31.98;;;9.48;;
61009;SDS011;46897;55.340;86.082;2022-12-18T23:43:48;28.67;;;11.35;;
61009;SDS011;46897;55.340;86.082;2022-12-18T23:46:19;42.72;;;14.52;;
61009;SDS011;46897;55.340;86.082;2022-12-18T23:48:50;27.25;;;11.63;;
61009;SDS011;46897;55.340;86.082;2022-12-18T23:51:20;43.53;;;13.77;;
61009;SDS011;46897;55.340;86.082;2022-12-18T23:53:51;38.72;;;11.85;;
61009;SDS011;46897;55.340;86.082;2022-12-18T23:56:23;35.88;;;12.00;;
61009;SDS011;46897;55.340;86.082;2022-12-18T23:58:53;32.65;;;12.88;;
